sensor_id;sensor_type;location;lat;lon;timestamp;pressure;altitude;pressure_sealevel;temperature;humidity
7940;BME280;4015;48.888;9.226;2023-06-19T00:01:12;161131.75;;;23.41;61.04
7940;BME280;4015;48.888;9.226;2023-06-19T00:03:37;161044.25;;;23.06;62.26
7940;BME280;4015;48.888;9.226;2023-06-19T00:06:03;161023.66;;;22.98;62.06
7940;BME280;4015;48.888;9.226;2023-06-19T00:08:28;160988.88;;;22.84;62.26
7940;BME280;4015;48.888;9.226;2023-06-19T00:10:54;161004.38;;;22.91;61.74
7940;BME280;4015;48.888;9.226;2023-06-19T00:13:19;160943.84;;;22.67;62.65
7940;BME280;4015;48.888;9.226;2023-06-19T00:15:45;160940.00;;;22.65;62.15
7940;BME280;4015;48.888;9.226;2023-06-19T00:18:11;160950.31;;;22.69;61.86
7940;BME280;4015;48.888;9.226;2023-06-19T00:20:36;160914.28;;;22.55;62.16
7940;BME280;4015;48.888;9.226;2023-06-19T00:23:01;160884.69;;;22.43;62.57
7940;BME280;4015;48.888;9.226;2023-06-19T00:25:27;160862.84;;;22.34;61.87
7940;BME280;4015;48.888;9.226;2023-06-19T00:27:52;160852.53;;;22.30;61.73
7940;BME280;4015;48.888;9.226;2023-06-19T00:30:17;160869.25;;;22.37;61.65
7940;BME280;4015;48.888;9.226;2023-06-19T00:32:43;160909.13;;;22.53;61.00
7940;BME280;4015;48.888;9.226;2023-06-19T00:35:17;160969.59;;;22.77;60.04
7940;BME280;4015;48.888;9.226;2023-06-19T00:37:47;160997.97;;;22.88;59.40
7940;BME280;4015;48.888;9.226;2023-06-19T00:40:24;161031.41;;;23.01;59.41
7940;BME280;4015;48.888;9.226;2023-06-19T00:42:51;161039.09;;;23.04;59.45
7940;BME280;4015;48.888;9.226;2023-06-19T00:45:16;161022.38;;;22.98;59.98
7940;BME280;4015;48.888;9.226;2023-06-19T00:47:42;161057.13;;;23.11;59.07
7940;BME280;4015;48.888;9.226;2023-06-19T00:50:07;161037.81;;;23.04;60.43
7940;BME280;4015;48.888;9.226;2023-06-19T00:52:33;161040.38;;;23.05;59.76
7940;BME280;4015;48.888;9.226;2023-06-19T00:54:59;161021.09;;;22.97;60.07
7940;BME280;4015;48.888;9.226;2023-06-19T00:57:24;161032.69;;;23.02;60.14
7940;BME280;4015;48.888;9.226;2023-06-19T00:59:50;161117.59;;;23.35;59.00
7940;BME280;4015;48.888;9.226;2023-06-19T01:02:16;161124.00;;;23.38;59.41
7940;BME280;4015;48.888;9.226;2023-06-19T01:04:42;161089.28;;;23.24;60.46
7940;BME280;4015;48.888;9.226;2023-06-19T01:07:12;161068.69;;;23.16;61.74
7940;BME280;4015;48.888;9.226;2023-06-19T01:09:46;161070.00;;;23.17;61.79
7940;BME280;4015;48.888;9.226;2023-06-19T01:12:18;161022.38;;;22.98;60.00
7940;BME280;4015;48.888;9.226;2023-06-19T01:15:04;161015.97;;;22.95;59.71
7940;BME280;4015;48.888;9.226;2023-06-19T01:17:30;161088.00;;;23.24;56.97
7940;BME280;4015;48.888;9.226;2023-06-19T01:19:58;161142.06;;;23.45;56.43
7940;BME280;4015;48.888;9.226;2023-06-19T01:22:30;161175.53;;;23.58;55.97
7940;BME280;4015;48.888;9.226;2023-06-19T01:24:56;161178.09;;;23.59;55.69
7940;BME280;4015;48.888;9.226;2023-06-19T01:27:25;161153.63;;;23.50;55.95
7940;BME280;4015;48.888;9.226;2023-06-19T01:29:54;161136.88;;;23.43;56.17
7940;BME280;4015;48.888;9.226;2023-06-19T01:32:28;161156.19;;;23.51;56.27
7940;BME280;4015;48.888;9.226;2023-06-19T01:34:57;161147.19;;;23.47;56.29
7940;BME280;4015;48.888;9.226;2023-06-19T01:37:25;161129.19;;;23.40;56.56
7940;BME280;4015;48.888;9.226;2023-06-19T01:39:56;161124.00;;;23.38;57.32
7940;BME280;4015;48.888;9.226;2023-06-19T01:42:22;161118.88;;;23.36;56.95
7940;BME280;4015;48.888;9.226;2023-06-19T01:44:48;161100.88;;;23.29;57.28
7940;BME280;4015;48.888;9.226;2023-06-19T01:47:14;161102.16;;;23.29;58.15
7940;BME280;4015;48.888;9.226;2023-06-19T01:49:45;161082.88;;;23.22;58.49
7940;BME280;4015;48.888;9.226;2023-06-19T01:52:10;161079.00;;;23.20;58.73
7940;BME280;4015;48.888;9.226;2023-06-19T01:54:35;161124.00;;;23.38;58.54
7940;BME280;4015;48.888;9.226;2023-06-19T01:57:01;161157.50;;;23.51;58.59
7940;BME280;4015;48.888;9.226;2023-06-19T01:59:26;161184.56;;;23.62;58.49
7940;BME280;4015;48.888;9.226;2023-06-19T02:01:52;161185.84;;;23.62;58.70
7940;BME280;4015;48.888;9.226;2023-06-19T02:04:17;161158.78;;;23.52;59.46
7940;BME280;4015;48.888;9.226;2023-06-19T02:06:42;161179.38;;;23.60;59.85
7940;BME280;4015;48.888;9.226;2023-06-19T02:09:07;161131.75;;;23.41;60.13
7940;BME280;4015;48.888;9.226;2023-06-19T02:11:33;161145.91;;;23.47;60.67
7940;BME280;4015;48.888;9.226;2023-06-19T02:13:58;161156.19;;;23.51;60.81
7940;BME280;4015;48.888;9.226;2023-06-19T02:16:23;161118.88;;;23.36;61.03
7940;BME280;4015;48.888;9.226;2023-06-19T02:18:49;161106.00;;;23.31;61.14
7940;BME280;4015;48.888;9.226;2023-06-19T02:21:14;161103.44;;;23.30;61.25
7940;BME280;4015;48.888;9.226;2023-06-19T02:23:40;161090.56;;;23.25;61.91
7940;BME280;4015;48.888;9.226;2023-06-19T02:26:05;161045.56;;;23.07;62.42
7940;BME280;4015;48.888;9.226;2023-06-19T02:28:30;161089.28;;;23.24;62.56
7940;BME280;4015;48.888;9.226;2023-06-19T02:30:56;161089.28;;;23.24;62.46
7940;BME280;4015;48.888;9.226;2023-06-19T02:33:21;161081.56;;;23.21;63.22
7940;BME280;4015;48.888;9.226;2023-06-19T02:35:46;161067.41;;;23.15;63.14
7940;BME280;4015;48.888;9.226;2023-06-19T02:38:12;161028.81;;;23.00;64.44
7940;BME280;4015;48.888;9.226;2023-06-19T02:40:38;161032.69;;;23.02;64.61
7940;BME280;4015;48.888;9.226;2023-06-19T02:43:04;161018.53;;;22.96;65.08
7940;BME280;4015;48.888;9.226;2023-06-19T02:45:29;160999.25;;;22.88;65.37
7940;BME280;4015;48.888;9.226;2023-06-19T02:47:54;160978.59;;;22.80;65.09
7940;BME280;4015;48.888;9.226;2023-06-19T02:50:20;160963.16;;;22.74;65.76
7940;BME280;4015;48.888;9.226;2023-06-19T02:52:45;160929.72;;;22.61;66.73
7940;BME280;4015;48.888;9.226;2023-06-19T02:55:10;160914.28;;;22.55;67.09
7940;BME280;4015;48.888;9.226;2023-06-19T02:57:36;160949.00;;;22.69;66.18
7940;BME280;4015;48.888;9.226;2023-06-19T03:00:02;160941.28;;;22.66;66.43
7940;BME280;4015;48.888;9.226;2023-06-19T03:02:28;160943.84;;;22.67;66.30
7940;BME280;4015;48.888;9.226;2023-06-19T03:04:53;160919.44;;;22.57;67.09
7940;BME280;4015;48.888;9.226;2023-06-19T03:07:19;160945.16;;;22.67;67.32
7940;BME280;4015;48.888;9.226;2023-06-19T03:09:44;160937.44;;;22.64;66.60
7940;BME280;4015;48.888;9.226;2023-06-19T03:12:09;160916.84;;;22.56;66.85
7940;BME280;4015;48.888;9.226;2023-06-19T03:14:35;160932.28;;;22.62;67.29
7940;BME280;4015;48.888;9.226;2023-06-19T03:17:00;160955.44;;;22.71;66.11
7940;BME280;4015;48.888;9.226;2023-06-19T03:19:26;160956.72;;;22.72;66.40
7940;BME280;4015;48.888;9.226;2023-06-19T03:21:51;160933.56;;;22.62;66.25
7940;BME280;4015;48.888;9.226;2023-06-19T03:24:16;160963.16;;;22.74;66.26
7940;BME280;4015;48.888;9.226;2023-06-19T03:26:42;160982.47;;;22.82;65.61
7940;BME280;4015;48.888;9.226;2023-06-19T03:29:07;160978.59;;;22.80;65.10
7940;BME280;4015;48.888;9.226;2023-06-19T03:31:32;160964.44;;;22.75;65.56
7940;BME280;4015;48.888;9.226;2023-06-19T03:33:58;160951.59;;;22.70;65.26
7940;BME280;4015;48.888;9.226;2023-06-19T03:36:23;160932.28;;;22.62;65.67
7940;BME280;4015;48.888;9.226;2023-06-19T03:38:48;160940.00;;;22.65;66.14
7940;BME280;4015;48.888;9.226;2023-06-19T03:41:14;160913.00;;;22.54;66.22
7940;BME280;4015;48.888;9.226;2023-06-19T03:43:39;160914.28;;;22.55;66.19
7940;BME280;4015;48.888;9.226;2023-06-19T03:46:05;160938.72;;;22.65;65.66
7940;BME280;4015;48.888;9.226;2023-06-19T03:48:30;160945.16;;;22.67;65.60
7940;BME280;4015;48.888;9.226;2023-06-19T03:50:56;160914.28;;;22.55;66.61
7940;BME280;4015;48.888;9.226;2023-06-19T03:53:21;160892.41;;;22.46;67.10
7940;BME280;4015;48.888;9.226;2023-06-19T03:55:46;160950.31;;;22.69;67.28
7940;BME280;4015;48.888;9.226;2023-06-19T03:58:12;160950.31;;;22.69;66.55
7940;BME280;4015;48.888;9.226;2023-06-19T04:00:37;160938.72;;;22.65;66.96
7940;BME280;4015;48.888;9.226;2023-06-19T04:03:02;160933.56;;;22.62;67.13
7940;BME280;4015;48.888;9.226;2023-06-19T04:05:28;160924.56;;;22.59;67.08
7940;BME280;4015;48.888;9.226;2023-06-19T04:07:53;160893.72;;;22.47;67.95
7940;BME280;4015;48.888;9.226;2023-06-19T04:10:18;160923.28;;;22.58;68.21
7940;BME280;4015;48.888;9.226;2023-06-19T04:12:44;160904.00;;;22.51;67.33
7940;BME280;4015;48.888;9.226;2023-06-19T04:15:10;160914.28;;;22.55;67.04
7940;BME280;4015;48.888;9.226;2023-06-19T04:17:36;160950.31;;;22.69;66.69
7940;BME280;4015;48.888;9.226;2023-06-19T04:20:01;160904.00;;;22.51;67.07
7940;BME280;4015;48.888;9.226;2023-06-19T04:22:29;160927.13;;;22.60;66.64
7940;BME280;4015;48.888;9.226;2023-06-19T04:24:55;161009.50;;;22.93;65.21
7940;BME280;4015;48.888;9.226;2023-06-19T04:27:20;160995.34;;;22.87;65.88
7940;BME280;4015;48.888;9.226;2023-06-19T04:29:45;161021.09;;;22.97;64.81
7940;BME280;4015;48.888;9.226;2023-06-19T04:32:11;161032.69;;;23.02;64.79
7940;BME280;4015;48.888;9.226;2023-06-19T04:34:41;160987.59;;;22.84;65.32
7940;BME280;4015;48.888;9.226;2023-06-19T04:37:11;160981.16;;;22.81;65.58
7940;BME280;4015;48.888;9.226;2023-06-19T04:39:37;160961.88;;;22.74;65.78
7940;BME280;4015;48.888;9.226;2023-06-19T04:42:02;160942.56;;;22.66;66.33
7940;BME280;4015;48.888;9.226;2023-06-19T04:44:28;160960.59;;;22.73;66.22
7940;BME280;4015;48.888;9.226;2023-06-19T04:46:55;160933.56;;;22.62;66.67
7940;BME280;4015;48.888;9.226;2023-06-19T04:49:27;160955.44;;;22.71;66.93
7940;BME280;4015;48.888;9.226;2023-06-19T04:51:55;161005.66;;;22.91;66.78
7940;BME280;4015;48.888;9.226;2023-06-19T04:54:20;161073.84;;;23.18;65.77
7940;BME280;4015;48.888;9.226;2023-06-19T04:56:46;161084.16;;;23.22;66.56
7940;BME280;4015;48.888;9.226;2023-06-19T04:59:11;161139.44;;;23.44;65.92
7940;BME280;4015;48.888;9.226;2023-06-19T05:01:36;161183.28;;;23.61;65.32
7940;BME280;4015;48.888;9.226;2023-06-19T05:04:05;161245.06;;;23.86;65.22
7940;BME280;4015;48.888;9.226;2023-06-19T05:06:31;161362.19;;;24.32;64.33
7940;BME280;4015;48.888;9.226;2023-06-19T05:08:56;161417.63;;;24.54;62.93
7940;BME280;4015;48.888;9.226;2023-06-19T05:11:21;161480.72;;;24.79;61.58
7940;BME280;4015;48.888;9.226;2023-06-19T05:13:47;161506.47;;;24.89;61.32
7940;BME280;4015;48.888;9.226;2023-06-19T05:16:12;161519.31;;;24.94;61.48
7940;BME280;4015;48.888;9.226;2023-06-19T05:18:41;161545.13;;;25.05;62.17
7940;BME280;4015;48.888;9.226;2023-06-19T05:21:06;161537.34;;;25.01;63.28
7940;BME280;4015;48.888;9.226;2023-06-19T05:23:32;161554.19;;;25.08;62.46
7940;BME280;4015;48.888;9.226;2023-06-19T05:25:57;161564.44;;;25.12;61.22
7940;BME280;4015;48.888;9.226;2023-06-19T05:28:22;161626.28;;;25.37;61.62
7940;BME280;4015;48.888;9.226;2023-06-19T05:30:48;161605.69;;;25.28;62.03
7940;BME280;4015;48.888;9.226;2023-06-19T05:33:15;161585.03;;;25.20;62.83
7940;BME280;4015;48.888;9.226;2023-06-19T05:35:41;161510.31;;;24.91;62.97
7940;BME280;4015;48.888;9.226;2023-06-19T05:38:07;161515.47;;;24.93;63.61
7940;BME280;4015;48.888;9.226;2023-06-19T05:40:32;161518.03;;;24.94;62.55
7940;BME280;4015;48.888;9.226;2023-06-19T05:42:58;161554.19;;;25.08;63.49
7940;BME280;4015;48.888;9.226;2023-06-19T05:45:23;161528.34;;;24.98;61.71
7940;BME280;4015;48.888;9.226;2023-06-19T05:47:48;161528.34;;;24.98;61.68
7940;BME280;4015;48.888;9.226;2023-06-19T05:50:14;161545.13;;;25.05;62.30
7940;BME280;4015;48.888;9.226;2023-06-19T05:52:39;161527.06;;;24.97;63.04
7940;BME280;4015;48.888;9.226;2023-06-19T05:55:09;161532.22;;;24.99;63.06
7940;BME280;4015;48.888;9.226;2023-06-19T05:57:34;161533.50;;;25.00;63.50
7940;BME280;4015;48.888;9.226;2023-06-19T06:00:00;161487.13;;;24.82;63.68
7940;BME280;4015;48.888;9.226;2023-06-19T06:02:25;161512.91;;;24.92;62.37
7940;BME280;4015;48.888;9.226;2023-06-19T06:04:50;161558.03;;;25.10;62.33
7940;BME280;4015;48.888;9.226;2023-06-19T06:07:16;161627.56;;;25.37;62.66
7940;BME280;4015;48.888;9.226;2023-06-19T06:09:42;161649.50;;;25.46;62.87
7940;BME280;4015;48.888;9.226;2023-06-19T06:12:07;161641.72;;;25.43;62.32
7940;BME280;4015;48.888;9.226;2023-06-19T06:14:33;161702.28;;;25.67;61.98
7940;BME280;4015;48.888;9.226;2023-06-19T06:16:58;161796.41;;;26.04;60.72
7940;BME280;4015;48.888;9.226;2023-06-19T06:19:23;161894.38;;;26.43;59.21
7940;BME280;4015;48.888;9.226;2023-06-19T06:21:49;161868.53;;;26.32;59.86
7940;BME280;4015;48.888;9.226;2023-06-19T06:24:15;161893.09;;;26.42;59.94
7940;BME280;4015;48.888;9.226;2023-06-19T06:26:40;161952.38;;;26.66;59.85
7940;BME280;4015;48.888;9.226;2023-06-19T06:29:07;161974.28;;;26.74;59.98
7940;BME280;4015;48.888;9.226;2023-06-19T06:31:32;162012.94;;;26.89;59.10
7940;BME280;4015;48.888;9.226;2023-06-19T06:33:57;162003.94;;;26.86;58.59
7940;BME280;4015;48.888;9.226;2023-06-19T06:36:23;162083.91;;;27.18;59.80
7940;BME280;4015;48.888;9.226;2023-06-19T06:38:50;162049.06;;;27.04;57.31
7940;BME280;4015;48.888;9.226;2023-06-19T06:41:15;162081.31;;;27.17;57.69
7940;BME280;4015;48.888;9.226;2023-06-19T06:43:41;162001.34;;;26.85;58.47
7940;BME280;4015;48.888;9.226;2023-06-19T06:46:08;162166.41;;;27.50;57.11
7940;BME280;4015;48.888;9.226;2023-06-19T06:48:33;162174.16;;;27.53;58.80
7940;BME280;4015;48.888;9.226;2023-06-19T06:50:59;162239.97;;;27.79;56.86
7940;BME280;4015;48.888;9.226;2023-06-19T06:53:27;162259.31;;;27.87;57.61
7940;BME280;4015;48.888;9.226;2023-06-19T06:55:57;162291.53;;;28.00;56.60
7940;BME280;4015;48.888;9.226;2023-06-19T06:58:23;162287.69;;;27.98;55.84
7940;BME280;4015;48.888;9.226;2023-06-19T07:00:48;162390.88;;;28.39;54.95
7940;BME280;4015;48.888;9.226;2023-06-19T07:03:16;162389.59;;;28.38;55.86
7940;BME280;4015;48.888;9.226;2023-06-19T07:05:41;162479.91;;;28.74;55.37
7940;BME280;4015;48.888;9.226;2023-06-19T07:08:06;162578.00;;;29.13;55.04
7940;BME280;4015;48.888;9.226;2023-06-19T07:10:32;162679.97;;;29.53;53.18
7940;BME280;4015;48.888;9.226;2023-06-19T07:12:57;162758.72;;;29.84;52.45
7940;BME280;4015;48.888;9.226;2023-06-19T07:15:22;162798.75;;;30.00;52.49
7940;BME280;4015;48.888;9.226;2023-06-19T07:17:48;162676.13;;;29.51;53.63
7940;BME280;4015;48.888;9.226;2023-06-19T07:20:14;162614.13;;;29.27;53.67
7940;BME280;4015;48.888;9.226;2023-06-19T07:22:40;162556.09;;;29.04;53.44
7940;BME280;4015;48.888;9.226;2023-06-19T07:25:05;162483.78;;;28.75;54.69
7940;BME280;4015;48.888;9.226;2023-06-19T07:27:31;162490.19;;;28.78;53.60
7940;BME280;4015;48.888;9.226;2023-06-19T07:29:56;162443.75;;;28.60;55.03
7940;BME280;4015;48.888;9.226;2023-06-19T07:32:22;162433.47;;;28.56;54.31
7940;BME280;4015;48.888;9.226;2023-06-19T07:34:47;162429.63;;;28.54;52.93
7940;BME280;4015;48.888;9.226;2023-06-19T07:37:12;162433.47;;;28.56;53.35
7940;BME280;4015;48.888;9.226;2023-06-19T07:39:44;162505.69;;;28.84;53.23
7940;BME280;4015;48.888;9.226;2023-06-19T07:42:10;162802.59;;;30.01;51.86
7940;BME280;4015;48.888;9.226;2023-06-19T07:44:35;163097.06;;;31.17;49.33
7940;BME280;4015;48.888;9.226;2023-06-19T07:47:01;163235.31;;;31.72;48.42
7940;BME280;4015;48.888;9.226;2023-06-19T07:49:26;163448.63;;;32.56;46.57
7940;BME280;4015;48.888;9.226;2023-06-19T07:51:51;163586.91;;;33.11;44.96
7940;BME280;4015;48.888;9.226;2023-06-19T07:54:17;163792.56;;;33.92;43.20
7940;BME280;4015;48.888;9.226;2023-06-19T07:56:42;164011.13;;;34.78;42.31
7940;BME280;4015;48.888;9.226;2023-06-19T07:59:07;164238.88;;;35.67;41.80
7940;BME280;4015;48.888;9.226;2023-06-19T08:01:33;164297.09;;;35.90;40.53
7940;BME280;4015;48.888;9.226;2023-06-19T08:03:58;164398.06;;;36.30;39.05
7940;BME280;4015;48.888;9.226;2023-06-19T08:06:23;163951.63;;;34.54;41.51
7940;BME280;4015;48.888;9.226;2023-06-19T08:08:48;163760.19;;;33.79;42.75
7940;BME280;4015;48.888;9.226;2023-06-19T08:11:14;164005.94;;;34.76;41.30
7940;BME280;4015;48.888;9.226;2023-06-19T08:13:39;163765.34;;;33.81;42.53
7940;BME280;4015;48.888;9.226;2023-06-19T08:16:06;163473.16;;;32.66;44.19
7940;BME280;4015;48.888;9.226;2023-06-19T08:18:31;163347.75;;;32.16;45.26
7940;BME280;4015;48.888;9.226;2023-06-19T08:20:57;163237.91;;;31.73;46.50
7940;BME280;4015;48.888;9.226;2023-06-19T08:23:22;163119.09;;;31.26;47.12
7940;BME280;4015;48.888;9.226;2023-06-19T08:25:47;163245.69;;;31.76;46.18
7940;BME280;4015;48.888;9.226;2023-06-19T08:28:13;163702.00;;;33.56;44.16
7940;BME280;4015;48.888;9.226;2023-06-19T08:30:38;163954.22;;;34.55;42.40
7940;BME280;4015;48.888;9.226;2023-06-19T08:33:03;164167.69;;;35.39;41.47
7940;BME280;4015;48.888;9.226;2023-06-19T08:35:29;164002.06;;;34.74;41.22
7940;BME280;4015;48.888;9.226;2023-06-19T08:37:54;164198.78;;;35.52;39.57
7940;BME280;4015;48.888;9.226;2023-06-19T08:40:20;164293.19;;;35.89;39.50
7940;BME280;4015;48.888;9.226;2023-06-19T08:42:45;164446.00;;;36.49;38.08
7940;BME280;4015;48.888;9.226;2023-06-19T08:45:10;164317.84;;;35.99;38.90
7940;BME280;4015;48.888;9.226;2023-06-19T08:47:35;164514.56;;;36.76;37.75
7940;BME280;4015;48.888;9.226;2023-06-19T08:50:01;164622.06;;;37.18;36.66
7940;BME280;4015;48.888;9.226;2023-06-19T08:52:27;164769.66;;;37.76;36.48
7940;BME280;4015;48.888;9.226;2023-06-19T08:54:52;165084.50;;;39.00;34.59
7940;BME280;4015;48.888;9.226;2023-06-19T08:57:17;164395.50;;;36.29;36.52
7940;BME280;4015;48.888;9.226;2023-06-19T08:59:50;164225.94;;;35.62;38.63
7940;BME280;4015;48.888;9.226;2023-06-19T09:02:16;164233.72;;;35.65;38.88
7940;BME280;4015;48.888;9.226;2023-06-19T09:04:42;164594.88;;;37.08;37.56
7940;BME280;4015;48.888;9.226;2023-06-19T09:07:08;164550.88;;;36.90;37.38
7940;BME280;4015;48.888;9.226;2023-06-19T09:09:33;164815.03;;;37.94;36.07
7940;BME280;4015;48.888;9.226;2023-06-19T09:12:04;165207.59;;;39.49;34.76
7940;BME280;4015;48.888;9.226;2023-06-19T09:17:00;165068.94;;;38.94;34.01
7940;BME280;4015;48.888;9.226;2023-06-19T09:19:25;165158.38;;;39.29;34.10
7940;BME280;4015;48.888;9.226;2023-06-19T09:21:51;165547.19;;;40.82;32.72
7940;BME280;4015;48.888;9.226;2023-06-19T09:24:16;165373.50;;;40.14;33.86
7940;BME280;4015;48.888;9.226;2023-06-19T09:26:41;165473.31;;;40.53;33.38
7940;BME280;4015;48.888;9.226;2023-06-19T09:29:14;165579.63;;;40.95;33.03
7940;BME280;4015;48.888;9.226;2023-06-19T09:31:44;165590.03;;;40.99;33.19
7940;BME280;4015;48.888;9.226;2023-06-19T09:34:09;165801.38;;;41.82;30.79
7940;BME280;4015;48.888;9.226;2023-06-19T09:36:35;165959.59;;;42.44;31.60
7940;BME280;4015;48.888;9.226;2023-06-19T09:39:02;165814.34;;;41.87;32.33
7940;BME280;4015;48.888;9.226;2023-06-19T09:41:29;166006.31;;;42.63;31.79
7940;BME280;4015;48.888;9.226;2023-06-19T09:43:55;165824.69;;;41.91;31.66
7940;BME280;4015;48.888;9.226;2023-06-19T09:46:32;165986.78;;;42.55;31.38
7940;BME280;4015;48.888;9.226;2023-06-19T09:49:01;165587.38;;;40.98;33.00
7940;BME280;4015;48.888;9.226;2023-06-19T09:51:37;165867.47;;;42.08;33.14
7940;BME280;4015;48.888;9.226;2023-06-19T09:54:05;165912.91;;;42.26;31.99
7940;BME280;4015;48.888;9.226;2023-06-19T09:56:31;165981.63;;;42.53;31.46
7940;BME280;4015;48.888;9.226;2023-06-19T09:58:57;165544.59;;;40.81;33.44
7940;BME280;4015;48.888;9.226;2023-06-19T10:01:29;165422.75;;;40.33;33.51
7940;BME280;4015;48.888;9.226;2023-06-19T10:04:07;165567.97;;;40.90;33.30
7940;BME280;4015;48.888;9.226;2023-06-19T10:06:33;165560.16;;;40.87;33.31
7940;BME280;4015;48.888;9.226;2023-06-19T10:09:08;165168.72;;;39.33;35.24
7940;BME280;4015;48.888;9.226;2023-06-19T10:11:48;165189.47;;;39.42;34.30
7940;BME280;4015;48.888;9.226;2023-06-19T10:14:17;164940.69;;;38.44;36.61
7940;BME280;4015;48.888;9.226;2023-06-19T10:16:44;164732.16;;;37.62;37.28
7940;BME280;4015;48.888;9.226;2023-06-19T10:19:17;164545.69;;;36.88;38.65
7940;BME280;4015;48.888;9.226;2023-06-19T10:21:45;164514.56;;;36.76;38.11
7940;BME280;4015;48.888;9.226;2023-06-19T10:24:14;164807.28;;;37.91;38.13
7940;BME280;4015;48.888;9.226;2023-06-19T10:26:40;165013.28;;;38.72;36.49
7940;BME280;4015;48.888;9.226;2023-06-19T10:29:18;165411.06;;;40.29;33.83
7940;BME280;4015;48.888;9.226;2023-06-19T10:31:43;165195.94;;;39.44;35.28
7940;BME280;4015;48.888;9.226;2023-06-19T10:34:10;165179.09;;;39.37;36.08
7940;BME280;4015;48.888;9.226;2023-06-19T10:36:37;165487.56;;;40.59;33.74
7940;BME280;4015;48.888;9.226;2023-06-19T10:39:02;165896.06;;;42.19;32.74
7940;BME280;4015;48.888;9.226;2023-06-19T10:41:27;165031.41;;;38.79;36.23
7940;BME280;4015;48.888;9.226;2023-06-19T10:43:55;165087.06;;;39.01;35.33
7940;BME280;4015;48.888;9.226;2023-06-19T10:46:21;165198.50;;;39.45;35.48
7940;BME280;4015;48.888;9.226;2023-06-19T10:48:48;165107.78;;;39.09;35.82
7940;BME280;4015;48.888;9.226;2023-06-19T10:51:18;165263.34;;;39.71;35.50
7940;BME280;4015;48.888;9.226;2023-06-19T10:53:44;165166.13;;;39.32;35.50
7940;BME280;4015;48.888;9.226;2023-06-19T10:56:09;165063.78;;;38.92;35.81
7940;BME280;4015;48.888;9.226;2023-06-19T10:58:34;165241.31;;;39.62;35.46
7940;BME280;4015;48.888;9.226;2023-06-19T11:00:59;165523.84;;;40.73;35.05
7940;BME280;4015;48.888;9.226;2023-06-19T11:03:25;165141.56;;;39.23;36.11
7940;BME280;4015;48.888;9.226;2023-06-19T11:05:50;165084.50;;;39.00;36.76
7940;BME280;4015;48.888;9.226;2023-06-19T11:08:21;164748.97;;;37.68;38.90
7940;BME280;4015;48.888;9.226;2023-06-19T11:10:48;164482.22;;;36.63;39.20
7940;BME280;4015;48.888;9.226;2023-06-19T11:13:20;164096.53;;;35.11;40.96
7940;BME280;4015;48.888;9.226;2023-06-19T11:15:47;163911.53;;;34.39;42.28
7940;BME280;4015;48.888;9.226;2023-06-19T11:18:15;164280.28;;;35.84;40.73
7940;BME280;4015;48.888;9.226;2023-06-19T11:20:49;164691.97;;;37.46;37.27
7940;BME280;4015;48.888;9.226;2023-06-19T11:23:16;164651.84;;;37.30;37.83
7940;BME280;4015;48.888;9.226;2023-06-19T11:25:43;164361.84;;;36.16;39.06
7940;BME280;4015;48.888;9.226;2023-06-19T11:28:15;164052.53;;;34.94;41.92
7940;BME280;4015;48.888;9.226;2023-06-19T11:30:42;163954.22;;;34.55;41.44
7940;BME280;4015;48.888;9.226;2023-06-19T11:33:21;164219.47;;;35.60;41.53
7940;BME280;4015;48.888;9.226;2023-06-19T11:35:54;164510.69;;;36.74;40.07
7940;BME280;4015;48.888;9.226;2023-06-19T11:38:24;164782.69;;;37.82;38.18
7940;BME280;4015;48.888;9.226;2023-06-19T11:40:50;164935.53;;;38.42;37.41
7940;BME280;4015;48.888;9.226;2023-06-19T11:43:29;165339.78;;;40.01;36.12
7940;BME280;4015;48.888;9.226;2023-06-19T11:46:05;165275.00;;;39.75;36.32
7940;BME280;4015;48.888;9.226;2023-06-19T11:48:31;165253.00;;;39.67;36.02
7940;BME280;4015;48.888;9.226;2023-06-19T11:50:57;165124.66;;;39.16;36.94
7940;BME280;4015;48.888;9.226;2023-06-19T11:53:23;165068.94;;;38.94;36.66
7940;BME280;4015;48.888;9.226;2023-06-19T11:55:50;164887.56;;;38.23;38.46
7940;BME280;4015;48.888;9.226;2023-06-19T11:58:16;165140.22;;;39.22;35.82
7940;BME280;4015;48.888;9.226;2023-06-19T12:00:42;165217.94;;;39.53;36.51
7940;BME280;4015;48.888;9.226;2023-06-19T12:03:08;165319.06;;;39.92;35.92
7940;BME280;4015;48.888;9.226;2023-06-19T12:05:35;165206.31;;;39.48;34.92
7940;BME280;4015;48.888;9.226;2023-06-19T12:08:01;165175.22;;;39.36;35.47
7940;BME280;4015;48.888;9.226;2023-06-19T12:10:30;165083.19;;;39.00;37.48
7940;BME280;4015;48.888;9.226;2023-06-19T12:12:55;165291.84;;;39.82;34.65
7940;BME280;4015;48.888;9.226;2023-06-19T12:15:20;165678.19;;;41.34;34.61
7940;BME280;4015;48.888;9.226;2023-06-19T12:17:46;166032.22;;;42.73;31.79
7940;BME280;4015;48.888;9.226;2023-06-19T12:20:12;165755.94;;;41.64;33.34
7940;BME280;4015;48.888;9.226;2023-06-19T12:22:39;165591.31;;;41.00;35.18
7940;BME280;4015;48.888;9.226;2023-06-19T12:25:04;165072.81;;;38.96;37.11
7940;BME280;4015;48.888;9.226;2023-06-19T12:27:30;164991.19;;;38.64;35.92
7940;BME280;4015;48.888;9.226;2023-06-19T12:29:55;164421.38;;;36.39;41.37
7940;BME280;4015;48.888;9.226;2023-06-19T12:32:21;164392.91;;;36.28;39.76
7940;BME280;4015;48.888;9.226;2023-06-19T12:34:46;164688.13;;;37.44;38.95
7940;BME280;4015;48.888;9.226;2023-06-19T12:37:15;164179.34;;;35.44;40.13
7940;BME280;4015;48.888;9.226;2023-06-19T12:39:43;163787.34;;;33.90;44.18
7940;BME280;4015;48.888;9.226;2023-06-19T12:42:09;163954.22;;;34.55;43.01
7940;BME280;4015;48.888;9.226;2023-06-19T12:44:37;164073.28;;;35.02;42.50
7940;BME280;4015;48.888;9.226;2023-06-19T12:47:02;164286.75;;;35.86;42.08
7940;BME280;4015;48.888;9.226;2023-06-19T12:49:30;164895.38;;;38.26;39.51
7940;BME280;4015;48.888;9.226;2023-06-19T12:51:55;165243.91;;;39.63;36.59
7940;BME280;4015;48.888;9.226;2023-06-19T12:54:20;165573.19;;;40.92;35.22
7940;BME280;4015;48.888;9.226;2023-06-19T12:56:46;165870.06;;;42.09;32.70
7940;BME280;4015;48.888;9.226;2023-06-19T12:59:11;165656.13;;;41.25;35.23
7940;BME280;4015;48.888;9.226;2023-06-19T13:01:36;165704.13;;;41.44;33.47
7940;BME280;4015;48.888;9.226;2023-06-19T13:04:02;165215.34;;;39.52;35.91
7940;BME280;4015;48.888;9.226;2023-06-19T13:06:27;165412.34;;;40.29;35.60
7940;BME280;4015;48.888;9.226;2023-06-19T13:08:53;165490.16;;;40.60;34.77